地図

経路データ

SID SEASON NUMBER BASIN SUBBASIN NAME ISO_TIME NATURE LAT LON WMO_WIND WMO_PRES WMO_AGENCY TRACK_TYPE DIST2LAND LANDFALL IFLAG USA_AGENCY USA_ATCF_ID USA_LAT USA_LON USA_RECORD USA_STATUS USA_WIND USA_PRES USA_SSHS USA_R34_NE USA_R34_SE USA_R34_SW USA_R34_NW USA_R50_NE USA_R50_SE USA_R50_SW USA_R50_NW USA_R64_NE USA_R64_SE USA_R64_SW USA_R64_NW USA_POCI USA_ROCI USA_RMW USA_EYE TOKYO_LAT TOKYO_LON TOKYO_GRADE TOKYO_WIND TOKYO_PRES TOKYO_R50_DIR TOKYO_R50_LONG TOKYO_R50_SHORT TOKYO_R30_DIR TOKYO_R30_LONG TOKYO_R30_SHORT TOKYO_LAND CMA_LAT CMA_LON CMA_CAT CMA_WIND CMA_PRES HKO_LAT HKO_LON HKO_CAT HKO_WIND HKO_PRES NEWDELHI_LAT NEWDELHI_LON NEWDELHI_GRADE NEWDELHI_WIND NEWDELHI_PRES NEWDELHI_CI NEWDELHI_DP NEWDELHI_POCI REUNION_LAT REUNION_LON REUNION_TYPE REUNION_WIND REUNION_PRES REUNION_TNUM REUNION_CI REUNION_RMW REUNION_R34_NE REUNION_R34_SE REUNION_R34_SW REUNION_R34_NW REUNION_R50_NE REUNION_R50_SE REUNION_R50_SW REUNION_R50_NW REUNION_R64_NE REUNION_R64_SE REUNION_R64_SW REUNION_R64_NW BOM_LAT BOM_LON BOM_TYPE BOM_WIND BOM_PRES BOM_TNUM BOM_CI BOM_RMW BOM_R34_NE BOM_R34_SE BOM_R34_SW BOM_R34_NW BOM_R50_NE BOM_R50_SE BOM_R50_SW BOM_R50_NW BOM_R64_NE BOM_R64_SE BOM_R64_SW BOM_R64_NW BOM_ROCI BOM_POCI BOM_EYE BOM_POS_METHOD BOM_PRES_METHOD NADI_LAT NADI_LON NADI_CAT NADI_WIND NADI_PRES WELLINGTON_LAT WELLINGTON_LON WELLINGTON_WIND WELLINGTON_PRES DS824_LAT DS824_LON DS824_STAGE DS824_WIND DS824_PRES TD9636_LAT TD9636_LON TD9636_STAGE TD9636_WIND TD9636_PRES TD9635_LAT TD9635_LON TD9635_WIND TD9635_PRES TD9635_ROCI NEUMANN_LAT NEUMANN_LON NEUMANN_CLASS NEUMANN_WIND NEUMANN_PRES MLC_LAT MLC_LON MLC_CLASS MLC_WIND MLC_PRES USA_GUST BOM_GUST BOM_GUST_PER REUNION_GUST REUNION_GUST_PER USA_SEAHGT USA_SEARAD_NE USA_SEARAD_SE USA_SEARAD_SW USA_SEARAD_NW STORM_SPEED STORM_DIR
1937336N09142 1937 64 WP MM NOT_NAMED 1937-12-02 10:00:00 NR 9.20000 142.200 main 1288 1288 __________O___ -1 9.20000 142.200 7 1 0
1937336N09142 1937 64 WP MM NOT_NAMED 1937-12-02 12:00:00 NR 9.22213 142.187 main 1288 1288 __________P___ -1 9.22213 142.187 7 1 318
1937336N09142 1937 64 WP MM NOT_NAMED 1937-12-02 15:00:00 NR 9.27205 142.135 main 1295 1292 __________P___ -1 9.27205 142.135 7 2 308
1937336N09142 1937 64 WP MM NOT_NAMED 1937-12-02 18:00:00 NR 9.36494 141.999 main 1302 1299 __________P___ -1 9.36494 141.999 7 5 302
1937336N09142 1937 64 WP MM NOT_NAMED 1937-12-02 21:00:00 NR 9.52649 141.729 main 1302 1302 __________P___ -1 9.52649 141.729 7 7 301
1937336N09142 1937 64 WP MM NOT_NAMED 1937-12-02 22:00:00 NR 9.60000 141.600 main 1310 1307 __________O___ -1 9.60000 141.600 7 10 300
1937336N09142 1937 64 WP MM NOT_NAMED 1937-12-03 00:00:00 NR 9.77870 141.278 main 1322 1319 __________P___ -1 9.77870 141.278 7 13 299
1937336N09142 1937 64 WP MM NOT_NAMED 1937-12-03 03:00:00 NR 10.1036 140.663 main 1332 1327 __________P___ -1 10.1036 140.663 7 15 297
1937336N09142 1937 64 WP MM NOT_NAMED 1937-12-03 06:00:00 NR 10.4577 139.938 main 1341 1337 __________P___ -1 10.4577 139.938 7 16 295
1937336N09142 1937 64 WP MM NOT_NAMED 1937-12-03 09:00:00 NR 10.7974 139.161 main 1348 1342 __________P___ -1 10.7974 139.161 7 17 293
1937336N09142 1937 64 WP MM NOT_NAMED 1937-12-03 10:00:00 NR 10.9000 138.900 main 1350 1347 __________O___ -1 10.9000 138.900 7 16 292
1937336N09142 1937 64 WP MM NOT_NAMED 1937-12-03 12:00:00 NR 11.0932 138.415 main 1350 1280 __________P___ -1 11.0932 138.415 7 16 291
1937336N09142 1937 64 WP MM NOT_NAMED 1937-12-03 15:00:00 NR 11.3522 137.668 main 1282 1201 __________P___ -1 11.3522 137.668 7 15 287
1937336N09142 1937 64 WP MM NOT_NAMED 1937-12-03 18:00:00 NR 11.5550 136.909 main 1201 1129 __________P___ -1 11.5550 136.909 7 15 282
1937336N09142 1937 64 WP MM NOT_NAMED 1937-12-03 21:00:00 NR 11.6796 136.151 main 1129 1097 __________P___ -1 11.6796 136.151 7 15 278
1937336N09142 1937 64 WP MM NOT_NAMED 1937-12-03 22:00:00 NR 11.7000 135.900 main 1097 1044 __________O___ -1 11.7000 135.900 7 14 272
1937336N09142 1937 64 WP MM NOT_NAMED 1937-12-04 00:00:00 NR 11.7013 135.416 main 1044 968 __________P___ -1 11.7013 135.416 7 14 266
1937336N09142 1937 64 WP MM NOT_NAMED 1937-12-04 03:00:00 NR 11.6279 134.696 main 968 891 __________P___ -1 11.6279 134.696 7 14 262
1937336N09142 1937 64 WP MM NOT_NAMED 1937-12-04 06:00:00 NR 11.4976 133.976 main 891 801 __________P___ -1 11.4976 133.976 7 14 259
1937336N09142 1937 64 WP MM NOT_NAMED 1937-12-04 09:00:00 NR 11.3478 133.247 main 801 780 __________P___ -1 11.3478 133.247 7 15 258
1937336N09142 1937 64 WP MM NOT_NAMED 1937-12-04 10:00:00 NR 11.3000 133.000 main 780 725 __________O___ -1 11.3000 133.000 7 15 261
1937336N09142 1937 64 WP MM NOT_NAMED 1937-12-04 12:00:00 NR 11.2228 132.479 main 725 638 __________P___ -1 11.2228 132.479 7 16 261
1937336N09142 1937 64 WP MM NOT_NAMED 1937-12-04 15:00:00 NR 11.1069 131.684 main 638 552 __________P___ -1 11.1069 131.684 7 16 262
1937336N09142 1937 64 WP MM NOT_NAMED 1937-12-04 18:00:00 NR 11.0018 130.897 main 552 467 __________P___ -1 11.0018 130.897 7 15 263
1937336N09142 1937 64 WP MM NOT_NAMED 1937-12-04 21:00:00 NR 10.9199 130.141 main 467 447 __________P___ -1 10.9199 130.141 7 15 264
1937336N09142 1937 64 WP MM NOT_NAMED 1937-12-04 22:00:00 NR 10.9000 129.900 main 447 404 __________O___ -1 10.9000 129.900 7 13 265
1937336N09142 1937 64 WP MM NOT_NAMED 1937-12-05 00:00:00 NR 10.8632 129.460 main 404 328 __________P___ -1 10.8632 129.460 7 13 266
1937336N09142 1937 64 WP MM NOT_NAMED 1937-12-05 03:00:00 NR 10.8336 128.837 main 328 263 __________P___ -1 10.8336 128.837 7 12 269
1937336N09142 1937 64 WP MM NOT_NAMED 1937-12-05 06:00:00 NR 10.8375 128.232 main 263 196 __________P___ -1 10.8375 128.232 7 12 272
1937336N09142 1937 64 WP MM NOT_NAMED 1937-12-05 09:00:00 NR 10.8779 127.614 main 196 175 __________P___ -1 10.8779 127.614 7 12 274
1937336N09142 1937 64 WP MM NOT_NAMED 1937-12-05 10:00:00 NR 10.9000 127.400 main 175 120 __________O___ -1 10.9000 127.400 7 14 275
1937336N09142 1937 64 WP MM NOT_NAMED 1937-12-05 12:00:00 NR 10.9448 126.893 main 120 32 __________P___ -1 10.9448 126.893 7 15 276
1937336N09142 1937 64 WP MM NOT_NAMED 1937-12-05 15:00:00 NR 11.0432 126.105 main 32 0 __________P___ -1 11.0432 126.105 7 15 279
1937336N09142 1937 64 WP MM NOT_NAMED 1937-12-05 18:00:00 NR 11.1757 125.347 main 0 0 __________P___ -1 11.1757 125.347 7 14 282
1937336N09142 1937 64 WP MM NOT_NAMED 1937-12-05 21:00:00 NR 11.3391 124.686 main 0 0 __________P___ -1 11.3391 124.686 7 13 285
1937336N09142 1937 64 WP MM NOT_NAMED 1937-12-05 22:00:00 NR 11.4000 124.500 main 0 0 __________O___ -1 11.4000 124.500 2 10 294
1937336N09142 1937 64 WP MM NOT_NAMED 1937-12-06 00:00:00 NR 11.5419 124.232 main 21 0 __________P___ -1 11.5419 124.232 2 8 305
1937336N09142 1937 64 WP MM NOT_NAMED 1937-12-06 03:00:00 NR 11.7811 123.944 main 10 0 __________P___ -1 11.7811 123.944 2 7 314
1937336N09142 1937 64 WP MM NOT_NAMED 1937-12-06 06:00:00 NR 12.0243 123.724 main 10 0 __________P___ -1 12.0243 123.724 2 6 316
1937336N09142 1937 64 WP MM NOT_NAMED 1937-12-06 09:00:00 NR 12.2398 123.493 main 0 0 __________P___ -1 12.2398 123.493 2 6 311
1937336N09142 1937 64 WP MM NOT_NAMED 1937-12-06 10:00:00 NR 12.3000 123.400 main 0 0 __________O___ -1 12.3000 123.400 2 7 297
1937336N09142 1937 64 WP MM NOT_NAMED 1937-12-06 12:00:00 NR 12.3983 123.178 main 10 10 __________P___ -1 12.3983 123.178 2 8 288
1937336N09142 1937 64 WP MM NOT_NAMED 1937-12-06 15:00:00 NR 12.4984 122.768 main 54 63 __________P___ -1 12.4984 122.768 2 9 280
1937336N09142 1937 64 WP MM NOT_NAMED 1937-12-06 18:00:00 NR 12.5569 122.291 main 74 21 __________P___ -1 12.5569 122.291 2 10 275
1937336N09142 1937 64 WP MM NOT_NAMED 1937-12-06 21:00:00 NR 12.5910 121.775 main 21 0 __________P___ -1 12.5910 121.775 2 10 274
1937336N09142 1937 64 WP MM NOT_NAMED 1937-12-06 22:00:00 NR 12.6000 121.600 main 0 __________O___ -1 12.6000 121.600 2 10 273

デジタル台風データ・検索

IBTrACS Databaseについて

本データベースは、米国NOAAが公開する1842年以降の世界の熱帯低気圧のベストトラックデータアーカイブInternational Best Track Archive for Climate Stewardship (IBTrACS)を、ウェブで閲覧しやすい形式に変換したものです。

最終更新日:2021-10-25